Time;durP1;ratioP1;P1;durP2;ratioP2;P2;SDS_P1;SDS_P2;PMS_P1;PMS_P2;Temp;Humidity;BMP_temperature;BMP_pressure;BME280_temperature;BME280_humidity;BME280_pressure;Samples;Min_cycle;Max_cycle;Signal;HPM_P1;HPM_P2
2022/03/13 00:00:36;;;;;;;13.87;8.83;;;5.20;44.00;;;;;;5083193;28;20507;-56
2022/03/13 00:03:03;;;;;;;10.23;7.10;;;5.20;43.90;;;;;;5081339;28;20504;-54
2022/03/13 00:05:32;;;;;;;11.40;7.70;;;5.20;44.00;;;;;;5084434;28;20442;-57
2022/03/13 00:08:01;;;;;;;18.60;7.40;;;5.10;44.20;;;;;;5084004;28;20446;-55
2022/03/13 00:10:30;;;;;;;14.67;9.07;;;5.10;44.20;;;;;;5083591;28;20462;-55
2022/03/13 00:12:57;;;;;;;16.33;8.50;;;5.00;44.30;;;;;;5083333;28;20453;-57
2022/03/13 00:15:34;;;;;;;16.37;8.80;;;5.10;44.40;;;;;;5083917;28;20466;-55
2022/03/13 00:18:01;;;;;;;13.10;7.80;;;5.00;44.30;;;;;;5084190;28;20461;-56
2022/03/13 00:20:28;;;;;;;15.87;8.17;;;5.00;44.30;;;;;;5084119;28;20474;-54
2022/03/13 00:22:57;;;;;;;11.17;6.33;;;5.00;44.40;;;;;;5084376;28;20465;-56
2022/03/13 00:25:25;;;;;;;14.73;7.60;;;5.00;44.40;;;;;;5084470;28;20430;-52
2022/03/13 00:27:52;;;;;;;17.13;8.70;;;5.00;44.50;;;;;;5084927;28;20487;-55
2022/03/13 00:30:19;;;;;;;14.70;6.77;;;5.00;44.40;;;;;;5084819;28;21013;-56
2022/03/13 00:32:47;;;;;;;12.87;6.10;;;4.90;44.30;;;;;;5084453;28;20923;-55
2022/03/13 00:35:14;;;;;;;15.90;7.43;;;4.90;44.40;;;;;;5084914;28;20478;-57
2022/03/13 00:37:40;;;;;;;19.37;6.97;;;4.90;44.50;;;;;;5084942;28;20439;-56
2022/03/13 00:40:08;;;;;;;14.43;7.77;;;4.80;44.80;;;;;;5084482;28;20446;-57
2022/03/13 00:42:35;;;;;;;16.60;8.33;;;4.80;44.80;;;;;;5083935;28;20459;-54
2022/03/13 00:45:02;;;;;;;21.00;8.77;;;4.70;44.80;;;;;;5084059;28;20453;-56
2022/03/13 00:47:29;;;;;;;16.70;8.77;;;4.70;44.80;;;;;;5084089;28;20446;-56
2022/03/13 00:49:56;;;;;;;14.63;8.60;;;4.70;44.90;;;;;;5084174;28;20486;-52
2022/03/13 00:52:23;;;;;;;15.77;8.03;;;4.60;45.60;;;;;;5084810;28;20455;-54
2022/03/13 00:54:50;;;;;;;11.40;6.90;;;4.70;45.60;;;;;;5084675;28;20482;-56
2022/03/13 00:57:17;;;;;;;13.53;7.10;;;4.60;45.10;;;;;;5085171;28;20454;-56
2022/03/13 00:59:44;;;;;;;22.43;9.03;;;4.70;45.30;;;;;;5084291;28;20478;-51
2022/03/13 01:02:11;;;;;;;11.67;7.17;;;4.60;45.10;;;;;;5084851;28;20472;-56
2022/03/13 01:04:38;;;;;;;9.13;6.50;;;4.60;45.30;;;;;;5086646;28;20423;-55
2022/03/13 01:07:06;;;;;;;11.73;6.57;;;4.50;45.30;;;;;;5085569;28;20946;-56
2022/03/13 01:09:34;;;;;;;15.20;7.20;;;4.50;45.40;;;;;;5085324;28;20501;-55
2022/03/13 01:12:01;;;;;;;14.93;6.57;;;4.40;45.30;;;;;;5085907;28;20492;-55
2022/03/13 01:14:33;;;;;;;13.73;6.93;;;4.40;45.40;;;;;;5085540;28;20486;-57
2022/03/13 01:17:05;;;;;;;9.97;7.10;;;4.40;45.50;;;;;;5084864;28;20437;-57
2022/03/13 01:19:31;;;;;;;18.57;7.97;;;4.40;45.60;;;;;;5085554;28;20426;-53
2022/03/13 01:21:58;;;;;;;11.37;6.50;;;4.30;45.70;;;;;;5087364;28;20433;-54
2022/03/13 01:24:31;;;;;;;16.07;6.63;;;4.30;45.70;;;;;;5090315;28;20441;-56
2022/03/13 01:27:02;;;;;;;14.27;6.80;;;4.20;45.80;;;;;;5090506;28;20431;-56
2022/03/13 01:29:29;;;;;;;18.40;6.80;;;4.20;46.00;;;;;;5090310;28;20492;-55
2022/03/13 01:31:56;;;;;;;15.27;9.70;;;4.20;46.00;;;;;;5090532;28;20468;-56
2022/03/13 01:34:47;;;;;;;8.97;6.70;;;4.10;46.30;;;;;;5089996;28;20478;-52
2022/03/13 01:37:19;;;;;;;14.50;7.27;;;4.10;47.10;;;;;;5090806;28;20457;-54
2022/03/13 01:39:48;;;;;;;12.60;7.20;;;3.90;46.60;;;;;;5092356;28;20450;-55
2022/03/13 01:42:15;;;;;;;14.33;7.03;;;3.90;47.00;;;;;;5091979;28;20478;-53
2022/03/13 01:44:42;;;;;;;11.83;7.47;;;3.80;47.40;;;;;;5091594;28;20443;-56
2022/03/13 01:47:09;;;;;;;16.60;8.10;;;3.80;47.40;;;;;;5091905;28;20500;-54
2022/03/13 01:49:36;;;;;;;14.33;8.60;;;3.70;47.60;;;;;;5091843;28;20476;-53
2022/03/13 01:52:03;;;;;;;13.40;8.47;;;3.60;47.80;;;;;;5093193;28;20442;-57
2022/03/13 01:54:31;;;;;;;13.00;7.10;;;3.60;47.90;;;;;;5093261;28;20966;-56
2022/03/13 01:57:06;;;;;;;13.40;8.10;;;3.50;47.90;;;;;;5092687;28;20473;-54
2022/03/13 01:59:33;;;;;;;13.17;8.03;;;3.50;47.90;;;;;;5093216;28;20468;-56
2022/03/13 02:02:00;;;;;;;13.57;7.50;;;3.40;48.00;;;;;;5092948;28;20476;-54
2022/03/13 02:04:30;;;;;;;13.23;7.77;;;3.40;48.00;;;;;;5093273;28;20468;-53
2022/03/13 02:06:58;;;;;;;12.20;7.13;;;3.30;47.80;;;;;;5092826;28;20537;-50
2022/03/13 02:09:26;;;;;;;19.13;7.43;;;3.30;48.00;;;;;;5094262;28;20529;-55
2022/03/13 02:11:54;;;;;;;17.40;8.70;;;3.20;48.30;;;;;;5093422;28;20454;-52
2022/03/13 02:14:24;;;;;;;12.93;8.67;;;3.20;48.00;;;;;;5093363;28;20482;-56
2022/03/13 02:16:52;;;;;;;17.47;8.33;;;3.10;47.90;;;;;;5092888;28;20438;-55
2022/03/13 02:19:19;;;;;;;10.90;8.13;;;3.10;48.10;;;;;;5094194;28;20484;-57
2022/03/13 02:21:49;;;;;;;12.43;7.80;;;3.10;47.90;;;;;;5094101;28;20516;-54
2022/03/13 02:24:20;;;;;;;10.90;7.17;;;3.00;47.90;;;;;;5094003;28;20423;-52
2022/03/13 02:26:56;;;;;;;17.37;6.97;;;3.00;48.10;;;;;;5093282;28;20423;-56
2022/03/13 02:29:23;;;;;;;13.53;8.27;;;2.90;48.10;;;;;;5093332;28;20470;-55
2022/03/13 02:31:51;;;;;;;13.07;5.87;;;2.90;47.90;;;;;;5092767;28;20442;-56
2022/03/13 02:34:19;;;;;;;10.60;5.33;;;3.00;48.00;;;;;;5093386;28;20485;-55
2022/03/13 02:37:03;;;;;;;13.13;7.30;;;2.90;47.80;;;;;;5093877;28;20454;-55
2022/03/13 02:39:36;;;;;;;17.03;7.00;;;2.90;47.80;;;;;;5093949;28;20427;-56
2022/03/13 02:42:08;;;;;;;8.13;5.27;;;2.90;47.90;;;;;;5093712;28;20470;-52
2022/03/13 02:44:36;;;;;;;17.93;8.70;;;2.80;47.80;;;;;;5093971;28;20464;-53
2022/03/13 02:47:05;;;;;;;10.90;6.90;;;2.80;47.80;;;;;;5094002;28;20450;-51
2022/03/13 02:49:33;;;;;;;12.33;7.33;;;2.80;47.80;;;;;;5094717;28;20466;-53
2022/03/13 02:52:03;;;;;;;11.17;6.90;;;2.80;47.80;;;;;;5094351;28;20450;-52
2022/03/13 02:54:32;;;;;;;12.63;6.73;;;2.70;47.90;;;;;;5094227;28;20485;-49
2022/03/13 02:56:59;;;;;;;14.73;9.53;;;2.80;47.90;;;;;;5094297;28;20427;-54
2022/03/13 02:59:26;;;;;;;16.80;8.47;;;2.80;47.90;;;;;;5094211;28;20446;-55
2022/03/13 03:01:53;;;;;;;17.33;6.87;;;2.70;47.80;;;;;;5093504;28;20492;-51
2022/03/13 03:04:24;;;;;;;13.80;7.50;;;2.70;47.90;;;;;;5093873;28;20452;-54
2022/03/13 03:07:00;;;;;;;14.50;6.77;;;2.60;47.90;;;;;;5094354;28;20423;-51
2022/03/13 03:09:30;;;;;;;11.43;6.97;;;2.60;47.90;;;;;;5094569;28;20458;-54
2022/03/13 03:11:59;;;;;;;12.93;7.60;;;2.50;48.10;;;;;;5094906;28;20476;-57
2022/03/13 03:14:28;;;;;;;13.97;7.13;;;2.50;48.10;;;;;;5094301;28;20473;-53
2022/03/13 03:16:55;;;;;;;16.63;7.60;;;2.50;48.20;;;;;;5094071;28;20485;-53
2022/03/13 03:19:22;;;;;;;17.53;6.90;;;2.40;48.20;;;;;;5093740;28;20472;-58
2022/03/13 03:21:49;;;;;;;15.83;6.90;;;2.40;48.40;;;;;;5093427;28;20462;-56
2022/03/13 03:24:18;;;;;;;21.80;7.40;;;2.40;48.30;;;;;;5093793;28;20469;-56
2022/03/13 03:26:45;;;;;;;12.33;6.87;;;2.40;48.30;;;;;;5093161;28;20458;-57
2022/03/13 03:29:14;;;;;;;12.70;5.57;;;2.40;48.40;;;;;;5093875;28;20462;-55
2022/03/13 03:31:42;;;;;;;10.93;6.03;;;2.30;48.40;;;;;;5094016;28;20521;-54
2022/03/13 03:34:11;;;;;;;12.30;7.67;;;2.30;48.60;;;;;;5093599;28;20426;-53
2022/03/13 03:36:41;;;;;;;12.87;6.23;;;2.30;48.70;;;;;;5094495;28;20423;-56
2022/03/13 03:39:08;;;;;;;10.00;4.70;;;2.20;48.70;;;;;;5094029;28;20449;-53
2022/03/13 03:41:35;;;;;;;18.30;7.43;;;2.20;48.80;;;;;;5094513;28;20462;-55
2022/03/13 03:44:02;;;;;;;14.97;7.27;;;2.20;48.90;;;;;;5093768;28;20447;-56
2022/03/13 03:46:30;;;;;;;9.53;5.40;;;2.20;48.90;;;;;;5094120;28;20923;-55
2022/03/13 03:48:57;;;;;;;14.30;7.03;;;2.20;49.00;;;;;;5094682;28;20466;-56
2022/03/13 03:51:24;;;;;;;15.07;8.00;;;2.20;49.10;;;;;;5094518;28;20438;-55
2022/03/13 03:53:50;;;;;;;20.37;8.43;;;2.20;49.20;;;;;;5094578;28;20493;-56
2022/03/13 03:56:17;;;;;;;11.27;8.90;;;2.20;49.30;;;;;;5094211;28;20470;-56
2022/03/13 03:58:44;;;;;;;18.70;8.90;;;2.20;49.30;;;;;;5093904;28;20434;-53
2022/03/13 04:01:10;;;;;;;15.33;7.50;;;2.20;49.30;;;;;;5093641;28;20462;-56
2022/03/13 04:03:39;;;;;;;17.23;5.90;;;2.20;49.40;;;;;;5093933;28;20469;-54
2022/03/13 04:06:08;;;;;;;10.90;6.17;;;2.30;49.30;;;;;;5094438;28;20477;-53
2022/03/13 04:08:36;;;;;;;12.70;7.70;;;2.20;49.60;;;;;;5094080;28;20460;-54
2022/03/13 04:11:03;;;;;;;18.50;8.40;;;2.20;49.50;;;;;;5093548;28;20517;-56
2022/03/13 04:13:30;;;;;;;18.37;8.60;;;2.30;49.70;;;;;;5093136;28;20466;-55
2022/03/13 04:15:58;;;;;;;11.60;6.57;;;2.30;49.70;;;;;;5092976;28;20474;-52
2022/03/13 04:18:25;;;;;;;15.53;8.13;;;2.30;49.50;;;;;;5092941;28;20465;-56
2022/03/13 04:20:56;;;;;;;15.63;7.97;;;2.30;49.50;;;;;;5092999;28;20435;-56
2022/03/13 04:23:25;;;;;;;13.77;8.53;;;2.30;49.50;;;;;;5092730;28;20427;-52
2022/03/13 04:25:52;;;;;;;14.90;6.87;;;2.40;49.50;;;;;;5093469;28;20482;-54
2022/03/13 04:28:19;;;;;;;15.70;8.50;;;2.30;49.60;;;;;;5092880;28;20446;-50
2022/03/13 04:30:47;;;;;;;13.60;7.50;;;2.30;49.60;;;;;;5093225;28;20485;-55
2022/03/13 04:33:16;;;;;;;24.30;7.87;;;2.40;49.60;;;;;;5092591;28;20426;-54
2022/03/13 04:35:42;;;;;;;19.70;8.00;;;2.40;49.60;;;;;;5092094;28;20482;-54
2022/03/13 04:38:11;;;;;;;16.43;7.80;;;2.40;49.40;;;;;;5091938;28;20443;-55
2022/03/13 04:40:38;;;;;;;13.53;7.87;;;2.40;49.40;;;;;;5092283;28;20434;-55
2022/03/13 04:43:05;;;;;;;18.87;7.57;;;2.40;49.30;;;;;;5092843;28;20458;-56
2022/03/13 04:45:33;;;;;;;15.30;7.83;;;2.40;49.30;;;;;;5093477;28;20431;-57
2022/03/13 04:47:59;;;;;;;16.33;8.30;;;2.40;49.30;;;;;;5092805;28;20443;-53
2022/03/13 04:50:26;;;;;;;15.57;7.87;;;2.40;49.60;;;;;;5093016;28;20442;-54
2022/03/13 04:52:53;;;;;;;14.13;6.70;;;2.40;49.50;;;;;;5092728;28;20455;-56
2022/03/13 04:55:21;;;;;;;12.30;5.97;;;2.40;49.50;;;;;;5091855;28;20482;-52
2022/03/13 04:57:47;;;;;;;17.53;8.10;;;2.50;49.50;;;;;;5092067;28;20988;-54
2022/03/13 05:00:15;;;;;;;18.07;7.67;;;2.50;49.40;;;;;;5092058;28;20461;-53
2022/03/13 05:02:43;;;;;;;16.30;7.00;;;2.50;49.50;;;;;;5092093;28;20466;-56
2022/03/13 05:05:10;;;;;;;15.03;7.83;;;2.50;49.60;;;;;;5091988;28;20510;-56
2022/03/13 05:07:38;;;;;;;15.57;7.33;;;2.50;49.30;;;;;;5091606;28;20462;-55
2022/03/13 05:10:09;;;;;;;15.30;6.33;;;2.50;49.30;;;;;;5091715;28;20446;-54
2022/03/13 05:12:37;;;;;;;19.93;6.90;;;2.50;49.40;;;;;;5091800;28;20489;-57
2022/03/13 05:15:05;;;;;;;17.23;7.07;;;2.50;49.50;;;;;;5092307;28;20508;-51
2022/03/13 05:17:31;;;;;;;18.30;8.53;;;2.50;49.40;;;;;;5091241;28;20442;-56
2022/03/13 05:19:58;;;;;;;12.43;6.37;;;2.50;49.20;;;;;;5091497;28;20476;-56
2022/03/13 05:22:25;;;;;;;15.77;9.13;;;2.50;49.10;;;;;;5091251;28;20464;-52
2022/03/13 05:24:53;;;;;;;10.80;5.70;;;2.40;49.00;;;;;;5091156;28;20469;-59
2022/03/13 05:27:20;;;;;;;24.50;7.60;;;2.50;49.10;;;;;;5092328;28;20456;-56
2022/03/13 05:29:50;;;;;;;14.63;8.03;;;2.40;49.10;;;;;;5091531;28;20454;-56
2022/03/13 05:32:17;;;;;;;10.83;7.10;;;2.50;49.20;;;;;;5091149;28;20504;-54
2022/03/13 05:34:47;;;;;;;18.40;8.30;;;2.50;49.00;;;;;;5090877;28;20442;-55
2022/03/13 05:37:13;;;;;;;20.60;7.40;;;2.50;48.90;;;;;;5091427;28;20460;-53
2022/03/13 05:39:42;;;;;;;12.33;6.83;;;2.50;48.80;;;;;;5092153;28;20435;-56
2022/03/13 05:42:10;;;;;;;12.10;6.10;;;2.60;48.90;;;;;;5091886;28;20451;-54
2022/03/13 05:44:37;;;;;;;10.00;6.10;;;2.60;49.40;;;;;;5092117;28;20470;-56
2022/03/13 05:47:05;;;;;;;15.30;6.77;;;2.60;48.90;;;;;;5092733;28;20506;-58
2022/03/13 05:49:32;;;;;;;14.10;7.00;;;2.50;48.80;;;;;;5091520;28;20470;-59
2022/03/13 05:52:00;;;;;;;16.47;7.60;;;2.50;48.80;;;;;;5091857;28;20419;-57
2022/03/13 05:54:26;;;;;;;14.27;8.03;;;2.40;48.80;;;;;;5091283;28;20442;-51
2022/03/13 05:56:54;;;;;;;11.70;7.47;;;2.40;48.80;;;;;;5091189;28;20493;-56
2022/03/13 05:59:23;;;;;;;18.70;8.00;;;2.30;48.80;;;;;;5091304;28;20460;-56
2022/03/13 06:01:50;;;;;;;10.50;7.30;;;2.30;48.90;;;;;;5091995;28;20546;-56
2022/03/13 06:04:19;;;;;;;14.70;8.23;;;2.30;48.90;;;;;;5091823;28;20442;-52
2022/03/13 06:06:45;;;;;;;16.23;6.83;;;2.30;49.30;;;;;;5092396;28;20486;-56
2022/03/13 06:09:12;;;;;;;15.20;7.87;;;2.30;49.10;;;;;;5095594;28;20511;-53
2022/03/13 06:11:39;;;;;;;10.00;6.77;;;2.30;49.20;;;;;;5095230;28;20469;-54
2022/03/13 06:14:06;;;;;;;13.93;6.97;;;2.30;49.00;;;;;;5095400;28;20477;-57
2022/03/13 06:16:32;;;;;;;8.50;5.47;;;2.40;48.90;;;;;;5095900;28;20527;-55
2022/03/13 06:19:01;;;;;;;11.70;7.70;;;2.30;49.00;;;;;;5095441;28;20450;-54
2022/03/13 06:21:29;;;;;;;12.47;5.53;;;2.40;49.10;;;;;;5095945;28;20524;-55
2022/03/13 06:23:56;;;;;;;16.03;8.10;;;2.40;49.00;;;;;;5093080;28;20466;-59
2022/03/13 06:26:22;;;;;;;16.00;8.50;;;2.40;49.00;;;;;;5090003;28;20462;-58
2022/03/13 06:28:49;;;;;;;18.40;9.27;;;2.40;49.00;;;;;;5090355;28;20473;-58
2022/03/13 06:31:16;;;;;;;10.37;6.60;;;2.40;49.10;;;;;;5089338;28;20508;-58
2022/03/13 06:33:42;;;;;;;10.93;7.67;;;2.40;49.00;;;;;;5089321;28;20548;-59
2022/03/13 06:36:10;;;;;;;12.90;7.53;;;2.50;48.90;;;;;;5089680;28;20551;-59
2022/03/13 06:38:38;;;;;;;15.67;7.60;;;2.50;48.80;;;;;;5089178;28;20505;-57
2022/03/13 06:41:05;;;;;;;18.80;8.73;;;2.50;48.80;;;;;;5090252;28;20459;-57
2022/03/13 06:43:34;;;;;;;18.63;9.40;;;2.50;48.60;;;;;;5090839;28;20454;-58
2022/03/13 06:46:01;;;;;;;15.53;7.20;;;2.50;48.80;;;;;;5088950;28;20452;-56
2022/03/13 06:48:28;;;;;;;15.40;7.40;;;2.60;48.60;;;;;;5088556;28;20515;-58
2022/03/13 06:50:54;;;;;;;13.40;7.43;;;2.70;48.50;;;;;;5087962;28;20488;-58
2022/03/13 06:53:21;;;;;;;12.73;7.10;;;2.70;48.50;;;;;;5089025;28;20457;-58
2022/03/13 06:55:51;;;;;;;14.60;7.77;;;2.70;48.50;;;;;;5087654;28;20482;-58
2022/03/13 06:58:18;;;;;;;12.37;7.67;;;2.80;48.30;;;;;;5087187;28;20472;-59
2022/03/13 07:00:45;;;;;;;14.30;7.27;;;2.90;48.30;;;;;;5087985;28;20875;-58
2022/03/13 07:03:13;;;;;;;14.07;8.07;;;3.00;48.10;;;;;;5086692;28;20470;-59
2022/03/13 07:05:40;;;;;;;15.37;9.40;;;3.00;47.80;;;;;;5086676;28;20541;-58
2022/03/13 07:08:07;;;;;;;13.17;7.60;;;3.10;47.60;;;;;;5085919;28;20446;-56
2022/03/13 07:10:34;;;;;;;10.00;6.93;;;3.20;47.50;;;;;;5085462;28;20438;-57
2022/03/13 07:13:08;;;;;;;13.80;6.80;;;3.30;47.40;;;;;;5084577;28;20442;-46
2022/03/13 07:15:36;;;;;;;14.27;8.10;;;3.40;47.80;;;;;;5089641;28;20512;-45
2022/03/13 07:18:05;;;;;;;18.73;8.00;;;3.50;48.60;;;;;;5095018;28;20522;-44
2022/03/13 07:20:31;;;;;;;15.73;7.80;;;3.60;48.80;;;;;;5096587;28;20481;-45
2022/03/13 07:22:58;;;;;;;16.50;7.10;;;3.70;47.40;;;;;;5097292;28;20442;-48
2022/03/13 07:25:25;;;;;;;14.40;7.33;;;3.80;47.00;;;;;;5097235;28;20411;-45
2022/03/13 07:27:52;;;;;;;15.87;7.70;;;3.90;47.10;;;;;;5097747;28;20458;-49
2022/03/13 07:30:20;;;;;;;12.77;7.17;;;4.00;46.60;;;;;;5097144;28;20431;-44
2022/03/13 07:32:46;;;;;;;13.00;7.40;;;4.10;46.30;;;;;;5096264;28;20521;-49
2022/03/13 07:35:15;;;;;;;15.50;7.33;;;4.20;46.30;;;;;;5096684;28;20431;-47
2022/03/13 07:37:42;;;;;;;13.77;7.50;;;4.30;46.40;;;;;;5096681;28;20423;-42
2022/03/13 07:40:10;;;;;;;18.30;6.97;;;4.40;45.80;;;;;;5096754;28;20462;-48
2022/03/13 07:42:37;;;;;;;10.37;7.37;;;4.40;45.10;;;;;;5096394;28;20427;-44
2022/03/13 07:45:03;;;;;;;13.20;8.13;;;4.60;46.60;;;;;;5096162;28;20597;-44
2022/03/13 07:47:31;;;;;;;15.10;7.53;;;4.70;45.00;;;;;;5096374;28;20419;-43
2022/03/13 07:49:58;;;;;;;15.43;7.07;;;4.70;44.50;;;;;;5095718;28;20458;-45
2022/03/13 07:52:25;;;;;;;13.53;9.27;;;4.70;45.10;;;;;;5095706;28;20447;-41
2022/03/13 07:54:51;;;;;;;11.30;6.80;;;4.90;44.70;;;;;;5095746;28;20439;-50
2022/03/13 07:57:18;;;;;;;19.47;8.07;;;5.00;44.50;;;;;;5095723;28;20482;-45
2022/03/13 07:59:47;;;;;;;12.47;8.33;;;5.00;44.00;;;;;;5095413;28;20441;-44
2022/03/13 08:02:14;;;;;;;15.20;8.47;;;5.20;44.50;;;;;;5095413;28;20443;-43
2022/03/13 08:04:42;;;;;;;20.70;8.53;;;5.30;44.30;;;;;;5094972;28;20442;-42
2022/03/13 08:07:09;;;;;;;17.40;7.70;;;5.40;43.00;;;;;;5094714;28;20451;-45
2022/03/13 08:09:36;;;;;;;15.73;8.10;;;5.40;42.70;;;;;;5077516;28;20941;-49
2022/03/13 08:12:03;;;;;;;10.10;5.53;;;5.50;42.50;;;;;;5081078;28;20461;-40
2022/03/13 08:14:30;;;;;;;14.83;6.97;;;5.60;42.10;;;;;;5076374;28;20481;-43
2022/03/13 08:16:57;;;;;;;10.90;6.77;;;5.70;41.50;;;;;;5073787;28;20984;-58
2022/03/13 08:19:24;;;;;;;12.70;6.63;;;5.80;40.90;;;;;;5074738;28;20467;-57
2022/03/13 08:21:52;;;;;;;13.60;6.27;;;5.80;40.70;;;;;;5074565;28;20459;-58
2022/03/13 08:24:20;;;;;;;10.87;6.67;;;5.80;40.90;;;;;;5074619;28;20495;-58
2022/03/13 08:26:47;;;;;;;16.73;7.70;;;5.90;40.90;;;;;;5074833;28;20443;-58
2022/03/13 08:29:15;;;;;;;11.97;7.00;;;6.00;41.10;;;;;;5074633;28;20477;-59
2022/03/13 08:31:42;;;;;;;11.27;8.00;;;6.10;40.80;;;;;;5073601;28;20474;-58
2022/03/13 08:34:10;;;;;;;16.80;7.17;;;6.20;40.40;;;;;;5074268;28;20472;-58
2022/03/13 08:36:37;;;;;;;11.87;6.53;;;6.20;40.00;;;;;;5074139;28;20523;-58
2022/03/13 08:39:06;;;;;;;13.73;6.70;;;6.30;39.80;;;;;;5073869;28;20828;-58
2022/03/13 08:41:33;;;;;;;11.80;7.03;;;6.40;39.70;;;;;;5074470;28;20443;-59
2022/03/13 08:43:59;;;;;;;10.37;6.30;;;6.60;40.00;;;;;;5074451;28;20449;-57
2022/03/13 08:46:26;;;;;;;19.33;6.50;;;7.30;39.60;;;;;;5074356;28;20465;-59
2022/03/13 08:48:53;;;;;;;13.20;7.73;;;8.50;39.30;;;;;;5073394;28;20450;-58
2022/03/13 08:51:21;;;;;;;14.43;8.53;;;10.20;36.50;;;;;;5074212;28;20469;-60
2022/03/13 08:53:48;;;;;;;16.83;8.23;;;12.30;34.30;;;;;;5074207;28;21052;-61
2022/03/13 08:56:17;;;;;;;17.37;9.70;;;14.40;31.80;;;;;;5074459;28;20490;-57
2022/03/13 08:58:44;;;;;;;15.73;9.03;;;16.40;30.00;;;;;;5074470;28;20482;-57
2022/03/13 09:01:10;;;;;;;12.70;8.63;;;17.80;29.00;;;;;;5073992;28;20846;-58
2022/03/13 09:03:37;;;;;;;12.50;8.40;;;19.10;28.00;;;;;;5073995;28;20474;-59
2022/03/13 09:06:04;;;;;;;13.00;7.73;;;20.60;26.80;;;;;;5074767;28;20488;-57
2022/03/13 09:08:31;;;;;;;12.63;8.23;;;21.50;25.60;;;;;;5074882;28;20463;-67
2022/03/13 09:10:58;;;;;;;12.07;7.83;;;22.10;24.40;;;;;;5074325;28;20467;-57
2022/03/13 09:13:26;;;;;;;12.07;8.93;;;22.30;24.20;;;;;;5073719;28;20450;-60
2022/03/13 09:15:53;;;;;;;8.57;7.50;;;21.80;23.60;;;;;;5073363;28;20535;-61
2022/03/13 09:18:20;;;;;;;10.13;8.43;;;22.00;23.20;;;;;;5074333;28;20549;-56
2022/03/13 09:20:46;;;;;;;9.20;7.20;;;21.70;23.40;;;;;;5073847;28;20449;-57
2022/03/13 09:23:13;;;;;;;12.07;7.30;;;21.70;23.30;;;;;;5074058;28;20474;-57
2022/03/13 09:25:40;;;;;;;9.70;7.27;;;21.80;23.30;;;;;;5074096;28;20454;-57
2022/03/13 09:28:06;;;;;;;9.83;8.10;;;22.00;23.10;;;;;;5073884;28;20462;-56
2022/03/13 09:30:34;;;;;;;9.10;6.63;;;21.80;22.80;;;;;;5073982;28;20451;-57
2022/03/13 09:33:01;;;;;;;11.70;7.40;;;21.50;22.80;;;;;;5073798;28;20531;-57
2022/03/13 09:35:28;;;;;;;12.57;7.90;;;20.60;22.80;;;;;;5073996;28;20516;-56
2022/03/13 09:37:55;;;;;;;10.83;7.10;;;19.20;23.20;;;;;;5073785;28;20485;-58
2022/03/13 09:40:22;;;;;;;10.07;6.87;;;18.00;23.70;;;;;;5073930;28;20516;-55
2022/03/13 09:42:49;;;;;;;10.30;6.60;;;16.90;24.60;;;;;;5075630;28;20947;-56
2022/03/13 09:45:16;;;;;;;10.40;6.50;;;16.00;25.90;;;;;;5077882;28;20767;-57
2022/03/13 09:47:44;;;;;;;9.23;6.30;;;15.40;25.30;;;;;;5078244;28;20437;-58
2022/03/13 09:50:12;;;;;;;11.73;7.20;;;15.30;25.70;;;;;;5077011;28;20469;-55
2022/03/13 09:52:40;;;;;;;13.10;6.73;;;16.10;25.70;;;;;;5076884;28;20504;-57
2022/03/13 09:55:08;;;;;;;12.90;6.60;;;17.50;24.80;;;;;;5076788;28;20480;-58
2022/03/13 09:57:36;;;;;;;13.37;7.33;;;18.50;23.80;;;;;;5077237;28;20587;-56
2022/03/13 10:00:05;;;;;;;11.93;7.20;;;19.50;23.20;;;;;;5077289;28;20470;-56
2022/03/13 10:02:37;;;;;;;9.10;7.40;;;20.40;23.00;;;;;;5077231;28;20446;-56
2022/03/13 10:05:11;;;;;;;9.70;6.67;;;20.80;22.60;;;;;;5077277;28;20788;-56
2022/03/13 10:07:59;;;;;;;12.30;8.90;;;21.60;22.70;;;;;;5077278;28;20427;-63
2022/03/13 10:10:27;;;;;;;9.93;6.17;;;22.50;22.30;;;;;;5077429;28;20450;-57
2022/03/13 10:12:54;;;;;;;12.40;8.03;;;22.90;22.00;;;;;;5077139;28;20450;-56
2022/03/13 10:15:21;;;;;;;12.07;7.07;;;23.00;21.90;;;;;;5075756;28;20480;-56
2022/03/13 10:17:49;;;;;;;13.93;8.00;;;23.30;22.90;;;;;;5076109;28;20224;-60
2022/03/13 10:20:19;;;;;;;11.07;7.50;;;23.40;22.60;;;;;;5077330;28;20553;-55
2022/03/13 10:22:48;;;;;;;12.03;7.30;;;23.30;21.60;;;;;;5076814;28;20501;-57
2022/03/13 10:25:18;;;;;;;10.10;6.70;;;22.80;21.60;;;;;;5077068;28;20439;-53
2022/03/13 10:27:45;;;;;;;13.37;8.47;;;23.00;24.80;;;;;;5077005;28;21081;-54
2022/03/13 10:30:13;;;;;;;9.80;7.17;;;23.20;22.60;;;;;;5077975;28;20531;-59
2022/03/13 10:32:39;;;;;;;10.50;7.60;;;23.40;24.50;;;;;;5077377;28;20534;-58
2022/03/13 10:35:07;;;;;;;10.20;6.40;;;23.20;21.60;;;;;;5077473;28;20467;-58
2022/03/13 10:37:37;;;;;;;9.50;6.27;;;23.80;23.10;;;;;;5076918;28;20849;-57
2022/03/13 10:40:12;;;;;;;9.70;5.83;;;23.80;21.40;;;;;;5076438;28;20508;-56
2022/03/13 10:42:43;;;;;;;10.57;6.73;;;23.80;21.10;;;;;;5056867;28;20498;-58
2022/03/13 10:45:10;;;;;;;8.20;7.40;;;23.90;23.80;;;;;;5056824;28;20865;-58
2022/03/13 10:47:37;;;;;;;12.33;7.47;;;23.60;21.30;;;;;;5056682;28;20820;-60
2022/03/13 10:50:06;;;;;;;8.10;5.50;;;23.60;21.20;;;;;;5056483;28;20412;-58
2022/03/13 10:52:41;;;;;;;8.40;6.17;;;23.50;22.00;;;;;;5057153;28;20757;-56
2022/03/13 10:55:20;;;;;;;8.13;5.17;;;23.20;21.20;;;;;;5075980;28;20772;-58
2022/03/13 10:57:51;;;;;;;6.13;4.80;;;23.20;23.00;;;;;;5076422;28;20535;-58
2022/03/13 11:00:18;;;;;;;6.67;4.20;;;22.60;21.10;;;;;;5075927;28;20459;-58
2022/03/13 11:02:45;;;;;;;8.70;5.03;;;22.40;22.50;;;;;;5076416;28;20463;-58
2022/03/13 11:05:12;;;;;;;9.00;6.33;;;22.20;23.30;;;;;;5076309;28;20438;-57
2022/03/13 11:07:40;;;;;;;8.20;5.10;;;21.90;21.80;;;;;;5076046;28;20667;-61
2022/03/13 11:10:09;;;;;;;7.30;5.63;;;21.50;22.90;;;;;;5075124;28;20451;-58
2022/03/13 11:12:38;;;;;;;6.53;4.90;;;20.80;21.40;;;;;;5077076;28;20446;-58
2022/03/13 11:15:08;;;;;;;10.00;5.93;;;20.20;21.40;;;;;;5076076;28;20495;-61
2022/03/13 11:17:36;;;;;;;7.23;5.47;;;19.90;21.70;;;;;;5075763;28;20475;-57
2022/03/13 11:20:06;;;;;;;8.50;5.33;;;19.40;22.60;;;;;;5075659;28;20569;-53
2022/03/13 11:22:33;;;;;;;6.37;4.70;;;19.00;22.90;;;;;;5074836;28;20450;-56
2022/03/13 11:25:04;;;;;;;9.17;5.83;;;18.70;22.70;;;;;;5075623;28;20447;-59
2022/03/13 11:27:34;;;;;;;8.10;5.63;;;18.20;22.70;;;;;;5075713;28;20470;-57
2022/03/13 11:30:00;;;;;;;9.43;5.10;;;17.90;22.80;;;;;;5076093;28;20519;-60
2022/03/13 11:32:37;;;;;;;12.00;4.60;;;17.50;22.90;;;;;;5075496;28;20972;-59
2022/03/13 11:35:21;;;;;;;13.30;5.67;;;17.20;23.60;;;;;;5076093;28;20436;-58
2022/03/13 11:37:49;;;;;;;9.43;4.97;;;16.80;22.70;;;;;;5075698;28;20559;-59
2022/03/13 11:40:20;;;;;;;8.90;5.27;;;16.60;23.10;;;;;;5075283;28;20523;-59
2022/03/13 11:42:48;;;;;;;5.43;4.53;;;16.40;23.40;;;;;;5075767;28;20430;-58
2022/03/13 11:45:33;;;;;;;6.37;3.90;;;16.30;23.30;;;;;;5075845;28;20489;-62
2022/03/13 11:48:40;;;;;;;6.77;4.80;;;16.00;23.50;;;;;;5075604;28;20806;-61
2022/03/13 11:51:07;;;;;;;7.50;4.87;;;15.80;23.60;;;;;;5075956;28;20442;-60
2022/03/13 11:53:48;;;;;;;7.80;4.80;;;15.60;24.50;;;;;;5076051;28;20454;-58
2022/03/13 11:56:29;;;;;;;16.10;6.27;;;15.30;23.90;;;;;;5075703;28;20427;-59
2022/03/13 11:59:01;;;;;;;8.73;5.50;;;15.10;23.50;;;;;;5075266;28;20466;-58
2022/03/13 12:01:38;;;;;;;8.90;5.20;;;15.00;24.60;;;;;;5075321;28;20430;-61
2022/03/13 12:04:25;;;;;;;8.40;5.40;;;14.90;25.40;;;;;;5075037;28;20449;-59
2022/03/13 12:06:55;;;;;;;9.43;6.13;;;15.00;25.70;;;;;;5074756;28;20858;-59
2022/03/13 12:09:30;;;;;;;7.57;5.50;;;15.00;25.50;;;;;;5074778;28;20453;-59
2022/03/13 12:12:03;;;;;;;9.23;6.07;;;14.90;25.60;;;;;;5075133;28;20449;-61
2022/03/13 12:14:51;;;;;;;8.53;5.30;;;14.90;25.70;;;;;;5074877;28;20474;-56
2022/03/13 12:17:19;;;;;;;8.40;5.43;;;14.90;26.10;;;;;;5075148;28;20478;-59
2022/03/13 12:19:47;;;;;;;10.47;6.93;;;14.90;26.30;;;;;;5074976;28;20474;-63
2022/03/13 12:22:15;;;;;;;10.67;6.60;;;14.80;26.30;;;;;;5074770;28;20919;-57
2022/03/13 12:24:48;;;;;;;12.30;6.30;;;14.70;26.90;;;;;;5074841;28;20458;-59
2022/03/13 12:27:16;;;;;;;8.03;5.40;;;14.80;26.80;;;;;;5074854;28;20524;-58
2022/03/13 12:29:48;;;;;;;8.97;6.47;;;14.80;26.60;;;;;;5074833;28;20454;-59
2022/03/13 12:32:14;;;;;;;11.70;6.20;;;14.80;26.90;;;;;;5074540;28;20883;-57
2022/03/13 12:34:41;;;;;;;9.10;6.87;;;14.80;26.90;;;;;;5075471;28;21006;-60
2022/03/13 12:37:09;;;;;;;8.90;5.97;;;14.90;27.10;;;;;;5075065;28;20532;-59
2022/03/13 12:39:48;;;;;;;12.63;7.00;;;15.00;27.40;;;;;;5074226;28;20501;-59
2022/03/13 12:42:21;;;;;;;10.13;6.40;;;15.00;27.10;;;;;;5074724;28;20460;-59
2022/03/13 12:44:59;;;;;;;9.93;6.53;;;14.90;26.90;;;;;;5075002;28;20427;-62
2022/03/13 12:47:27;;;;;;;12.33;6.00;;;14.90;26.70;;;;;;5074731;28;20790;-54
2022/03/13 12:49:58;;;;;;;9.60;6.53;;;14.90;27.20;;;;;;5074468;28;20446;-60
2022/03/13 12:52:25;;;;;;;9.70;5.43;;;15.00;27.10;;;;;;5074490;28;20512;-61